Budapest Bridge — VRIZ5 — position and weather

sailwx.info

Track history (hours):
 
Tides and Currents Weather Stations Pressure Air Temp Water Temp Dewpoint Dewpoint Depression Visibility Wind Speed Wind Dir Waves Ship Positions

Budapest Bridge

Last reported at 2016-Aug-26 04:32 UTC. Time now 2016-Aug-30 18:53 UTC.
Position N 33°53' E 134°53'.

Length 268 m; draft 10.7 m.

Type: Cargo ship. MMSI: 477434200.

Date/timePositionNaut miles runAvg speedWind from/ knotsBaromVisibWave heightAir tempDewpointWater temp
2016-Aug-26 04:32N 33°53' E 134°53'2020.0
2016-Aug-26 03:34N 34°13' E 134°57'1616.3
2016-Aug-26 02:34N 34°27' E 135°06'1515.5
2016-Aug-26 01:34N 34°41' E 135°16'0 0.1
2016-Aug-26 00:32N 34°41' E 135°16'0 0.0
2016-Aug-25 23:32N 34°41' E 135°16'0 0.0
2016-Aug-25 22:26N 34°41' E 135°16'0 0.0
2016-Aug-25 21:32N 34°41' E 135°16'0 0.0
2016-Aug-25 20:32N 34°41' E 135°16'0 0.0
2016-Aug-25 19:32N 34°41' E 135°16'0 0.0
2016-Aug-25 18:32N 34°41' E 135°16'0 0.0
2016-Aug-25 17:32N 34°41' E 135°16'0 0.0
2016-Aug-25 16:32N 34°41' E 135°16'0 0.0
2016-Aug-25 15:32N 34°41' E 135°16'0 0.0
2016-Aug-25 14:32N 34°41' E 135°16'0 0.0
2016-Aug-25 13:32N 34°41' E 135°16'0 0.0
2016-Aug-25 12:32N 34°41' E 135°16'0 0.0
2016-Aug-25 11:32N 34°41' E 135°16'0 0.0
2016-Aug-25 10:32N 34°41' E 135°16'0 0.0
2016-Aug-25 09:32N 34°41' E 135°16'0 0.0
2016-Aug-25 08:32N 34°41' E 135°16'2 2.0
2016-Aug-25 07:34N 34°41' E 135°18'10 9.9
2016-Aug-25 06:33N 34°32' E 135°13'3014.8
2016-Aug-25 04:34N 34°05' E 134°59'1211.2
2016-Aug-25 03:27N 33°52' E 134°59'23015.2
2016-Aug-24 12:20N 34°57' E 139°26'1417.6
2016-Aug-24 11:33N 35°03' E 139°41'1414.0
2016-Aug-24 10:34N 35°17' E 139°45'1110.6
2016-Aug-24 09:34N 35°27' E 139°41'0 0.1
2016-Aug-24 08:31N 35°27' E 139°40'0 0.0
2016-Aug-24 07:31N 35°27' E 139°40'0 0.0
2016-Aug-24 06:31N 35°27' E 139°40'0 0.0
2016-Aug-24 04:31N 35°27' E 139°40'0 0.0
2016-Aug-24 03:31N 35°27' E 139°40'0 0.0
2016-Aug-24 02:31N 35°27' E 139°40'0 0.0
2016-Aug-24 01:31N 35°27' E 139°40'0 0.0
2016-Aug-24 00:31N 35°27' E 139°40'0 0.0
2016-Aug-23 23:31N 35°27' E 139°40'4 4.2
2016-Aug-23 22:33N 35°24' E 139°43'1211.7
2016-Aug-23 21:33N 35°12' E 139°47'7 7.3
2016-Aug-23 20:33N 35°05' E 139°44'1010.1
2016-Aug-23 19:32N 34°59' E 139°34'5717.5
2016-Aug-23 16:18N 34°29' E 138°35'  
2016-Aug-21 10:23N 34°59' E 139°33'1012.4
2016-Aug-21 09:33N 35°05' E 139°43'1211.7
2016-Aug-21 08:33N 35°16' E 139°45'1211.9
2016-Aug-21 07:34N 35°28' E 139°49'9 8.8
2016-Aug-21 06:33N 35°37' E 139°46'0 0.0
2016-Aug-21 05:31N 35°37' E 139°46'0 0.0
2016-Aug-21 04:31N 35°37' E 139°46'0 0.0
2016-Aug-21 03:31N 35°37' E 139°46'0 0.0
2016-Aug-21 02:31N 35°37' E 139°46'0 0.0
2016-Aug-21 01:31N 35°37' E 139°46'0 0.0
2016-Aug-21 00:31N 35°37' E 139°46'0 0.0
2016-Aug-20 23:31N 35°37' E 139°46'0 0.0
2016-Aug-20 22:31N 35°37' E 139°46'0 0.0
2016-Aug-20 21:31N 35°37' E 139°46'0 0.0
2016-Aug-20 20:31N 35°37' E 139°46'0 0.0
2016-Aug-20 19:31N 35°37' E 139°46'0 0.0
2016-Aug-20 18:31N 35°37' E 139°46'0 0.0
2016-Aug-20 17:31N 35°37' E 139°46'0 0.0
2016-Aug-20 16:31N 35°37' E 139°46'0 0.0
2016-Aug-20 15:31N 35°37' E 139°46'0 0.0
2016-Aug-20 14:31N 35°37' E 139°46'0 0.0
2016-Aug-20 13:31N 35°37' E 139°46'0 0.0
2016-Aug-20 12:31N 35°37' E 139°46'0 0.0
2016-Aug-20 11:31N 35°37' E 139°46'0 0.0
2016-Aug-20 10:31N 35°37' E 139°46'0 0.0
2016-Aug-20 09:31N 35°37' E 139°46'1 0.6
2016-Aug-20 08:34N 35°36' E 139°46'7 6.6
2016-Aug-20 07:34N 35°31' E 139°52'1414.0
2016-Aug-20 06:34N 35°19' E 139°44'1010.1
2016-Aug-20 05:33N 35°09' E 139°46'5 4.8
2016-Aug-20 04:34N 35°05' E 139°44'1312.2
2016-Aug-20 03:32N 34°57' E 139°32'  
Track history (hours):
 
Tides and Currents Weather Stations Pressure Air Temp Water Temp Dewpoint Dewpoint Depression Visibility Wind Speed Wind Dir Waves Ship Positions

Budapest Bridge

Last reported at 2016-Aug-26 04:32 UTC. Time now 2016-Aug-30 18:53 UTC.
Position N 33°53' E 134°53'.

Length 268 m; draft 10.7 m.

Type: Cargo ship. MMSI: 477434200.

Date/timePositionNaut miles runAvg speedWind from/ knotsBaromVisibWave heightAir tempDewpointWater temp
2016-Aug-26 04:32N 33°53' E 134°53'2020.0
2016-Aug-26 03:34N 34°13' E 134°57'1616.3
2016-Aug-26 02:34N 34°27' E 135°06'1515.5
2016-Aug-26 01:34N 34°41' E 135°16'0 0.1
2016-Aug-26 00:32N 34°41' E 135°16'0 0.0
2016-Aug-25 23:32N 34°41' E 135°16'0 0.0
2016-Aug-25 22:26N 34°41' E 135°16'0 0.0
2016-Aug-25 21:32N 34°41' E 135°16'0 0.0
2016-Aug-25 20:32N 34°41' E 135°16'0 0.0
2016-Aug-25 19:32N 34°41' E 135°16'0 0.0
2016-Aug-25 18:32N 34°41' E 135°16'0 0.0
2016-Aug-25 17:32N 34°41' E 135°16'0 0.0
2016-Aug-25 16:32N 34°41' E 135°16'0 0.0
2016-Aug-25 15:32N 34°41' E 135°16'0 0.0
2016-Aug-25 14:32N 34°41' E 135°16'0 0.0
2016-Aug-25 13:32N 34°41' E 135°16'0 0.0
2016-Aug-25 12:32N 34°41' E 135°16'0 0.0
2016-Aug-25 11:32N 34°41' E 135°16'0 0.0
2016-Aug-25 10:32N 34°41' E 135°16'0 0.0
2016-Aug-25 09:32N 34°41' E 135°16'0 0.0
2016-Aug-25 08:32N 34°41' E 135°16'2 2.0
2016-Aug-25 07:34N 34°41' E 135°18'10 9.9
2016-Aug-25 06:33N 34°32' E 135°13'3014.8
2016-Aug-25 04:34N 34°05' E 134°59'1211.2
2016-Aug-25 03:27N 33°52' E 134°59'23015.2
2016-Aug-24 12:20N 34°57' E 139°26'1417.6
2016-Aug-24 11:33N 35°03' E 139°41'1414.0
2016-Aug-24 10:34N 35°17' E 139°45'1110.6
2016-Aug-24 09:34N 35°27' E 139°41'0 0.1
2016-Aug-24 08:31N 35°27' E 139°40'0 0.0
2016-Aug-24 07:31N 35°27' E 139°40'0 0.0
2016-Aug-24 06:31N 35°27' E 139°40'0 0.0
2016-Aug-24 04:31N 35°27' E 139°40'0 0.0
2016-Aug-24 03:31N 35°27' E 139°40'0 0.0
2016-Aug-24 02:31N 35°27' E 139°40'0 0.0
2016-Aug-24 01:31N 35°27' E 139°40'0 0.0
2016-Aug-24 00:31N 35°27' E 139°40'0 0.0
2016-Aug-23 23:31N 35°27' E 139°40'4 4.2
2016-Aug-23 22:33N 35°24' E 139°43'1211.7
2016-Aug-23 21:33N 35°12' E 139°47'7 7.3
2016-Aug-23 20:33N 35°05' E 139°44'1010.1
2016-Aug-23 19:32N 34°59' E 139°34'5717.5
2016-Aug-23 16:18N 34°29' E 138°35'  
2016-Aug-21 10:23N 34°59' E 139°33'1012.4
2016-Aug-21 09:33N 35°05' E 139°43'1211.7
2016-Aug-21 08:33N 35°16' E 139°45'1211.9
2016-Aug-21 07:34N 35°28' E 139°49'9 8.8
2016-Aug-21 06:33N 35°37' E 139°46'0 0.0
2016-Aug-21 05:31N 35°37' E 139°46'0 0.0
2016-Aug-21 04:31N 35°37' E 139°46'0 0.0
2016-Aug-21 03:31N 35°37' E 139°46'0 0.0
2016-Aug-21 02:31N 35°37' E 139°46'0 0.0
2016-Aug-21 01:31N 35°37' E 139°46'0 0.0
2016-Aug-21 00:31N 35°37' E 139°46'0 0.0
2016-Aug-20 23:31N 35°37' E 139°46'0 0.0
2016-Aug-20 22:31N 35°37' E 139°46'0 0.0
2016-Aug-20 21:31N 35°37' E 139°46'0 0.0
2016-Aug-20 20:31N 35°37' E 139°46'0 0.0
2016-Aug-20 19:31N 35°37' E 139°46'0 0.0
2016-Aug-20 18:31N 35°37' E 139°46'0 0.0
2016-Aug-20 17:31N 35°37' E 139°46'0 0.0
2016-Aug-20 16:31N 35°37' E 139°46'0 0.0
2016-Aug-20 15:31N 35°37' E 139°46'0 0.0
2016-Aug-20 14:31N 35°37' E 139°46'0 0.0
2016-Aug-20 13:31N 35°37' E 139°46'0 0.0
2016-Aug-20 12:31N 35°37' E 139°46'0 0.0
2016-Aug-20 11:31N 35°37' E 139°46'0 0.0
2016-Aug-20 10:31N 35°37' E 139°46'0 0.0
2016-Aug-20 09:31N 35°37' E 139°46'1 0.6
2016-Aug-20 08:34N 35°36' E 139°46'7 6.6
2016-Aug-20 07:34N 35°31' E 139°52'1414.0
2016-Aug-20 06:34N 35°19' E 139°44'1010.1
2016-Aug-20 05:33N 35°09' E 139°46'5 4.8
2016-Aug-20 04:34N 35°05' E 139°44'1312.2
2016-Aug-20 03:32N 34°57' E 139°32'  

Dump ship's entire track history